sensor_id;sensor_type;location;lat;lon;timestamp;temperature;humidity
3684;DHT22;1858;48.716;9.648;2023-10-13T00:01:15;17.40;99.90
3684;DHT22;1858;48.716;9.648;2023-10-13T00:04:02;17.30;99.90
3684;DHT22;1858;48.716;9.648;2023-10-13T00:06:49;17.30;99.90
3684;DHT22;1858;48.716;9.648;2023-10-13T00:09:35;17.30;99.90
3684;DHT22;1858;48.716;9.648;2023-10-13T00:12:25;17.30;99.90
3684;DHT22;1858;48.716;9.648;2023-10-13T00:15:12;17.30;99.90
3684;DHT22;1858;48.716;9.648;2023-10-13T00:17:59;17.30;99.90
3684;DHT22;1858;48.716;9.648;2023-10-13T00:20:45;17.30;99.90
3684;DHT22;1858;48.716;9.648;2023-10-13T00:23:35;17.30;99.90
3684;DHT22;1858;48.716;9.648;2023-10-13T00:26:26;17.20;99.90
3684;DHT22;1858;48.716;9.648;2023-10-13T00:29:13;17.20;99.90
3684;DHT22;1858;48.716;9.648;2023-10-13T00:32:01;17.20;99.90
3684;DHT22;1858;48.716;9.648;2023-10-13T00:34:48;17.20;99.90
3684;DHT22;1858;48.716;9.648;2023-10-13T00:37:36;17.20;99.90
3684;DHT22;1858;48.716;9.648;2023-10-13T00:40:24;17.20;99.90
3684;DHT22;1858;48.716;9.648;2023-10-13T00:43:13;17.10;99.90
3684;DHT22;1858;48.716;9.648;2023-10-13T00:46:06;17.00;99.90
3684;DHT22;1858;48.716;9.648;2023-10-13T00:48:53;16.90;99.90
3684;DHT22;1858;48.716;9.648;2023-10-13T00:51:40;16.90;99.90
3684;DHT22;1858;48.716;9.648;2023-10-13T00:54:31;16.80;99.90
3684;DHT22;1858;48.716;9.648;2023-10-13T00:57:18;16.70;99.90
3684;DHT22;1858;48.716;9.648;2023-10-13T01:00:15;16.70;99.90
3684;DHT22;1858;48.716;9.648;2023-10-13T01:03:04;16.60;99.90
3684;DHT22;1858;48.716;9.648;2023-10-13T01:05:54;16.50;99.90
3684;DHT22;1858;48.716;9.648;2023-10-13T01:08:49;16.40;99.90
3684;DHT22;1858;48.716;9.648;2023-10-13T01:11:33;16.30;99.90
3684;DHT22;1858;48.716;9.648;2023-10-13T01:14:21;16.20;99.90
3684;DHT22;1858;48.716;9.648;2023-10-13T01:17:28;16.20;99.90
3684;DHT22;1858;48.716;9.648;2023-10-13T01:20:16;16.00;1.00
3684;DHT22;1858;48.716;9.648;2023-10-13T01:23:12;16.00;1.00
3684;DHT22;1858;48.716;9.648;2023-10-13T01:26:06;15.90;1.00
3684;DHT22;1858;48.716;9.648;2023-10-13T01:28:59;15.80;1.00
3684;DHT22;1858;48.716;9.648;2023-10-13T01:31:46;15.70;1.00
3684;DHT22;1858;48.716;9.648;2023-10-13T01:34:33;15.60;1.00
3684;DHT22;1858;48.716;9.648;2023-10-13T01:37:19;15.50;1.00
3684;DHT22;1858;48.716;9.648;2023-10-13T01:43:14;15.40;1.00
3684;DHT22;1858;48.716;9.648;2023-10-13T01:46:02;15.40;1.00
3684;DHT22;1858;48.716;9.648;2023-10-13T01:48:48;15.30;1.00
3684;DHT22;1858;48.716;9.648;2023-10-13T01:51:34;15.30;1.00
3684;DHT22;1858;48.716;9.648;2023-10-13T01:54:21;15.20;1.00
3684;DHT22;1858;48.716;9.648;2023-10-13T01:57:08;15.20;1.00
3684;DHT22;1858;48.716;9.648;2023-10-13T01:59:56;15.20;1.00
3684;DHT22;1858;48.716;9.648;2023-10-13T02:02:44;15.10;1.00
3684;DHT22;1858;48.716;9.648;2023-10-13T02:05:31;15.00;1.00
3684;DHT22;1858;48.716;9.648;2023-10-13T02:08:22;15.00;1.00
3684;DHT22;1858;48.716;9.648;2023-10-13T02:11:10;14.90;1.00
3684;DHT22;1858;48.716;9.648;2023-10-13T02:13:56;14.90;1.00
3684;DHT22;1858;48.716;9.648;2023-10-13T02:16:43;14.80;1.00
3684;DHT22;1858;48.716;9.648;2023-10-13T02:19:31;14.80;1.00
3684;DHT22;1858;48.716;9.648;2023-10-13T02:22:17;14.70;1.00
3684;DHT22;1858;48.716;9.648;2023-10-13T02:25:05;14.60;1.00
3684;DHT22;1858;48.716;9.648;2023-10-13T02:27:52;14.60;1.00
3684;DHT22;1858;48.716;9.648;2023-10-13T02:30:44;14.60;1.00
3684;DHT22;1858;48.716;9.648;2023-10-13T02:33:30;14.50;1.00
3684;DHT22;1858;48.716;9.648;2023-10-13T02:36:17;14.50;1.00
3684;DHT22;1858;48.716;9.648;2023-10-13T02:39:05;14.30;1.00
3684;DHT22;1858;48.716;9.648;2023-10-13T02:41:56;14.40;1.00
3684;DHT22;1858;48.716;9.648;2023-10-13T02:44:43;14.30;1.00
3684;DHT22;1858;48.716;9.648;2023-10-13T02:47:31;14.30;1.00
3684;DHT22;1858;48.716;9.648;2023-10-13T02:50:18;14.30;1.00
3684;DHT22;1858;48.716;9.648;2023-10-13T02:53:06;14.20;1.00
3684;DHT22;1858;48.716;9.648;2023-10-13T02:55:55;14.20;1.00
3684;DHT22;1858;48.716;9.648;2023-10-13T02:58:51;14.10;1.00
3684;DHT22;1858;48.716;9.648;2023-10-13T03:01:51;14.10;1.00
3684;DHT22;1858;48.716;9.648;2023-10-13T03:04:38;14.10;1.00
3684;DHT22;1858;48.716;9.648;2023-10-13T03:07:24;14.10;1.00
3684;DHT22;1858;48.716;9.648;2023-10-13T03:10:12;14.10;1.00
3684;DHT22;1858;48.716;9.648;2023-10-13T03:13:00;14.10;1.00
3684;DHT22;1858;48.716;9.648;2023-10-13T03:15:47;14.10;1.00
3684;DHT22;1858;48.716;9.648;2023-10-13T03:18:33;14.00;1.00
3684;DHT22;1858;48.716;9.648;2023-10-13T03:21:21;14.00;1.00
3684;DHT22;1858;48.716;9.648;2023-10-13T03:24:09;14.00;1.00
3684;DHT22;1858;48.716;9.648;2023-10-13T03:26:57;13.90;1.00
3684;DHT22;1858;48.716;9.648;2023-10-13T03:29:45;13.90;1.00
3684;DHT22;1858;48.716;9.648;2023-10-13T03:32:33;13.90;1.00
3684;DHT22;1858;48.716;9.648;2023-10-13T03:35:21;13.80;1.00
3684;DHT22;1858;48.716;9.648;2023-10-13T03:38:10;13.80;1.00
3684;DHT22;1858;48.716;9.648;2023-10-13T03:41:02;13.70;1.00
3684;DHT22;1858;48.716;9.648;2023-10-13T03:43:55;13.70;1.00
3684;DHT22;1858;48.716;9.648;2023-10-13T03:46:44;13.60;1.00
3684;DHT22;1858;48.716;9.648;2023-10-13T03:49:31;13.70;72.70
3684;DHT22;1858;48.716;9.648;2023-10-13T03:52:19;13.50;86.30
3684;DHT22;1858;48.716;9.648;2023-10-13T03:55:27;13.50;99.90
3684;DHT22;1858;48.716;9.648;2023-10-13T03:58:19;13.50;99.90
3684;DHT22;1858;48.716;9.648;2023-10-13T04:01:07;13.40;99.90
3684;DHT22;1858;48.716;9.648;2023-10-13T04:03:55;13.40;99.90
3684;DHT22;1858;48.716;9.648;2023-10-13T04:06:52;13.40;99.90
3684;DHT22;1858;48.716;9.648;2023-10-13T04:13:05;13.30;99.90
3684;DHT22;1858;48.716;9.648;2023-10-13T04:16:09;13.20;99.90
3684;DHT22;1858;48.716;9.648;2023-10-13T04:19:04;13.20;99.90
3684;DHT22;1858;48.716;9.648;2023-10-13T04:22:13;13.10;99.90
3684;DHT22;1858;48.716;9.648;2023-10-13T04:25:03;13.10;99.90
3684;DHT22;1858;48.716;9.648;2023-10-13T04:27:51;13.10;99.90
3684;DHT22;1858;48.716;9.648;2023-10-13T04:30:49;13.00;99.90
3684;DHT22;1858;48.716;9.648;2023-10-13T04:33:43;13.00;99.90
3684;DHT22;1858;48.716;9.648;2023-10-13T04:36:31;13.00;99.90
3684;DHT22;1858;48.716;9.648;2023-10-13T04:39:19;12.90;99.90
3684;DHT22;1858;48.716;9.648;2023-10-13T04:42:07;12.90;99.90
3684;DHT22;1858;48.716;9.648;2023-10-13T04:44:58;12.90;99.90
3684;DHT22;1858;48.716;9.648;2023-10-13T04:47:46;12.90;99.90
3684;DHT22;1858;48.716;9.648;2023-10-13T04:50:34;12.90;99.90
3684;DHT22;1858;48.716;9.648;2023-10-13T04:53:22;12.90;99.90
3684;DHT22;1858;48.716;9.648;2023-10-13T04:56:22;12.90;99.90
3684;DHT22;1858;48.716;9.648;2023-10-13T04:59:09;12.80;99.90
3684;DHT22;1858;48.716;9.648;2023-10-13T05:02:06;12.90;99.90
3684;DHT22;1858;48.716;9.648;2023-10-13T05:05:13;12.80;99.90
3684;DHT22;1858;48.716;9.648;2023-10-13T05:08:01;12.90;99.90
3684;DHT22;1858;48.716;9.648;2023-10-13T05:11:06;12.80;99.90
3684;DHT22;1858;48.716;9.648;2023-10-13T05:14:11;12.70;1.00
3684;DHT22;1858;48.716;9.648;2023-10-13T05:17:15;12.80;99.90
3684;DHT22;1858;48.716;9.648;2023-10-13T05:20:19;12.80;99.90
3684;DHT22;1858;48.716;9.648;2023-10-13T05:23:24;12.80;99.90
3684;DHT22;1858;48.716;9.648;2023-10-13T05:26:28;12.70;99.90
3684;DHT22;1858;48.716;9.648;2023-10-13T05:29:33;12.70;99.90
3684;DHT22;1858;48.716;9.648;2023-10-13T05:32:39;12.60;99.90
3684;DHT22;1858;48.716;9.648;2023-10-13T05:35:44;12.60;99.90
3684;DHT22;1858;48.716;9.648;2023-10-13T05:38:48;12.60;99.90
3684;DHT22;1858;48.716;9.648;2023-10-13T05:41:53;12.60;99.90
3684;DHT22;1858;48.716;9.648;2023-10-13T05:44:57;12.70;99.90
3684;DHT22;1858;48.716;9.648;2023-10-13T05:48:03;12.60;99.90
3684;DHT22;1858;48.716;9.648;2023-10-13T05:51:01;12.60;99.90
3684;DHT22;1858;48.716;9.648;2023-10-13T05:57:30;12.60;99.90
3684;DHT22;1858;48.716;9.648;2023-10-13T06:00:39;12.70;99.90
3684;DHT22;1858;48.716;9.648;2023-10-13T06:03:44;12.70;99.90
3684;DHT22;1858;48.716;9.648;2023-10-13T06:06:48;12.70;99.90
3684;DHT22;1858;48.716;9.648;2023-10-13T06:09:53;12.80;99.90
3684;DHT22;1858;48.716;9.648;2023-10-13T06:12:57;13.00;99.90
3684;DHT22;1858;48.716;9.648;2023-10-13T06:16:21;13.00;99.90
3684;DHT22;1858;48.716;9.648;2023-10-13T06:19:25;13.00;99.90
3684;DHT22;1858;48.716;9.648;2023-10-13T06:22:29;13.00;99.90
3684;DHT22;1858;48.716;9.648;2023-10-13T06:25:34;13.10;99.90
3684;DHT22;1858;48.716;9.648;2023-10-13T06:28:39;13.10;99.90
3684;DHT22;1858;48.716;9.648;2023-10-13T06:31:26;13.20;99.90
3684;DHT22;1858;48.716;9.648;2023-10-13T06:34:12;13.30;99.90
3684;DHT22;1858;48.716;9.648;2023-10-13T06:37:00;13.40;99.90
3684;DHT22;1858;48.716;9.648;2023-10-13T06:39:46;13.50;99.90
3684;DHT22;1858;48.716;9.648;2023-10-13T06:42:33;13.70;99.90
3684;DHT22;1858;48.716;9.648;2023-10-13T06:45:20;13.90;99.90
3684;DHT22;1858;48.716;9.648;2023-10-13T06:48:07;14.10;95.50
3684;DHT22;1858;48.716;9.648;2023-10-13T06:50:58;14.30;1.00
3684;DHT22;1858;48.716;9.648;2023-10-13T06:53:46;14.60;1.00
3684;DHT22;1858;48.716;9.648;2023-10-13T06:56:33;14.60;1.00
3684;DHT22;1858;48.716;9.648;2023-10-13T06:59:21;14.80;1.00
3684;DHT22;1858;48.716;9.648;2023-10-13T07:02:09;14.90;1.00
3684;DHT22;1858;48.716;9.648;2023-10-13T07:04:56;15.10;1.00
3684;DHT22;1858;48.716;9.648;2023-10-13T07:07:45;15.30;1.00
3684;DHT22;1858;48.716;9.648;2023-10-13T07:10:33;15.30;1.40
3684;DHT22;1858;48.716;9.648;2023-10-13T07:13:34;15.40;99.90
3684;DHT22;1858;48.716;9.648;2023-10-13T07:16:54;15.50;99.90
3684;DHT22;1858;48.716;9.648;2023-10-13T07:22:38;15.70;99.90
3684;DHT22;1858;48.716;9.648;2023-10-13T07:25:25;15.80;99.90
3684;DHT22;1858;48.716;9.648;2023-10-13T07:28:12;15.80;99.90
3684;DHT22;1858;48.716;9.648;2023-10-13T07:31:00;15.90;99.90
3684;DHT22;1858;48.716;9.648;2023-10-13T07:33:48;16.00;99.90
3684;DHT22;1858;48.716;9.648;2023-10-13T07:36:34;16.20;99.90
3684;DHT22;1858;48.716;9.648;2023-10-13T07:39:22;16.20;99.90
3684;DHT22;1858;48.716;9.648;2023-10-13T07:42:13;16.30;99.90
3684;DHT22;1858;48.716;9.648;2023-10-13T07:45:05;16.30;99.90
3684;DHT22;1858;48.716;9.648;2023-10-13T07:47:52;16.40;99.90
3684;DHT22;1858;48.716;9.648;2023-10-13T07:50:40;16.50;99.90
3684;DHT22;1858;48.716;9.648;2023-10-13T07:53:26;16.60;99.90
3684;DHT22;1858;48.716;9.648;2023-10-13T07:56:13;16.70;99.90
3684;DHT22;1858;48.716;9.648;2023-10-13T07:59:01;16.80;99.90
3684;DHT22;1858;48.716;9.648;2023-10-13T08:01:49;17.00;99.90
3684;DHT22;1858;48.716;9.648;2023-10-13T08:04:37;17.20;99.90
3684;DHT22;1858;48.716;9.648;2023-10-13T08:07:23;17.40;99.90
3684;DHT22;1858;48.716;9.648;2023-10-13T08:10:11;17.60;99.90
3684;DHT22;1858;48.716;9.648;2023-10-13T08:12:58;17.70;99.90
3684;DHT22;1858;48.716;9.648;2023-10-13T08:15:45;17.80;99.90
3684;DHT22;1858;48.716;9.648;2023-10-13T08:18:35;17.90;99.90
3684;DHT22;1858;48.716;9.648;2023-10-13T08:21:23;18.00;99.90
3684;DHT22;1858;48.716;9.648;2023-10-13T08:24:10;18.10;99.90
3684;DHT22;1858;48.716;9.648;2023-10-13T08:26:58;18.20;99.90
3684;DHT22;1858;48.716;9.648;2023-10-13T08:30:03;18.40;99.90
3684;DHT22;1858;48.716;9.648;2023-10-13T08:33:08;18.60;99.90
3684;DHT22;1858;48.716;9.648;2023-10-13T08:36:03;18.80;99.90
3684;DHT22;1858;48.716;9.648;2023-10-13T08:38:53;19.10;99.90
3684;DHT22;1858;48.716;9.648;2023-10-13T08:41:42;19.40;99.90
3684;DHT22;1858;48.716;9.648;2023-10-13T08:44:31;19.70;99.90
3684;DHT22;1858;48.716;9.648;2023-10-13T08:47:18;20.10;99.90
3684;DHT22;1858;48.716;9.648;2023-10-13T08:50:06;20.80;1.00
3684;DHT22;1858;48.716;9.648;2023-10-13T08:52:58;22.00;1.00
3684;DHT22;1858;48.716;9.648;2023-10-13T08:55:46;23.40;1.00
3684;DHT22;1858;48.716;9.648;2023-10-13T08:58:37;25.00;1.00
3684;DHT22;1858;48.716;9.648;2023-10-13T09:01:40;26.30;99.90
3684;DHT22;1858;48.716;9.648;2023-10-13T09:04:37;28.00;99.90
3684;DHT22;1858;48.716;9.648;2023-10-13T09:07:23;29.10;99.90
3684;DHT22;1858;48.716;9.648;2023-10-13T09:13:21;30.90;99.90
3684;DHT22;1858;48.716;9.648;2023-10-13T09:16:14;31.80;99.90
3684;DHT22;1858;48.716;9.648;2023-10-13T09:19:19;32.60;99.90
3684;DHT22;1858;48.716;9.648;2023-10-13T09:22:06;33.50;99.90
3684;DHT22;1858;48.716;9.648;2023-10-13T09:24:59;34.20;99.90
3684;DHT22;1858;48.716;9.648;2023-10-13T09:27:48;34.60;99.90
3684;DHT22;1858;48.716;9.648;2023-10-13T09:30:49;34.70;99.90
3684;DHT22;1858;48.716;9.648;2023-10-13T09:33:37;35.10;99.90
3684;DHT22;1858;48.716;9.648;2023-10-13T09:36:25;35.80;99.90
3684;DHT22;1858;48.716;9.648;2023-10-13T09:39:13;36.20;99.90
3684;DHT22;1858;48.716;9.648;2023-10-13T09:42:02;36.00;99.90
3684;DHT22;1858;48.716;9.648;2023-10-13T09:44:48;36.30;99.90
3684;DHT22;1858;48.716;9.648;2023-10-13T09:47:39;36.20;99.90
3684;DHT22;1858;48.716;9.648;2023-10-13T09:50:28;36.40;99.90
3684;DHT22;1858;48.716;9.648;2023-10-13T09:53:17;36.70;99.90
3684;DHT22;1858;48.716;9.648;2023-10-13T09:56:14;36.30;99.90
3684;DHT22;1858;48.716;9.648;2023-10-13T09:59:11;36.40;99.90
3684;DHT22;1858;48.716;9.648;2023-10-13T10:01:58;36.60;99.90
3684;DHT22;1858;48.716;9.648;2023-10-13T10:04:56;36.60;99.90
3684;DHT22;1858;48.716;9.648;2023-10-13T10:07:53;36.60;99.90
3684;DHT22;1858;48.716;9.648;2023-10-13T10:10:56;36.70;99.90
3684;DHT22;1858;48.716;9.648;2023-10-13T10:14:15;36.80;99.90
3684;DHT22;1858;48.716;9.648;2023-10-13T10:17:22;37.20;99.90
3684;DHT22;1858;48.716;9.648;2023-10-13T10:20:34;37.80;99.90
3684;DHT22;1858;48.716;9.648;2023-10-13T10:23:27;37.60;83.30
3684;DHT22;1858;48.716;9.648;2023-10-13T10:26:16;37.50;98.20
3684;DHT22;1858;48.716;9.648;2023-10-13T10:29:23;37.20;99.30
3684;DHT22;1858;48.716;9.648;2023-10-13T10:32:14;37.00;99.90
3684;DHT22;1858;48.716;9.648;2023-10-13T10:35:22;36.80;98.70
3684;DHT22;1858;48.716;9.648;2023-10-13T10:38:11;37.10;99.90
3684;DHT22;1858;48.716;9.648;2023-10-13T10:41:02;37.30;99.90
3684;DHT22;1858;48.716;9.648;2023-10-13T10:43:52;36.80;97.40
3684;DHT22;1858;48.716;9.648;2023-10-13T10:46:38;36.00;90.10
3684;DHT22;1858;48.716;9.648;2023-10-13T10:49:28;35.20;94.60
3684;DHT22;1858;48.716;9.648;2023-10-13T10:52:16;34.40;99.90
3684;DHT22;1858;48.716;9.648;2023-10-13T10:55:06;33.80;99.90
3684;DHT22;1858;48.716;9.648;2023-10-13T10:58:00;33.90;99.90
3684;DHT22;1858;48.716;9.648;2023-10-13T11:00:48;33.80;99.90
3684;DHT22;1858;48.716;9.648;2023-10-13T11:03:38;33.50;99.90
3684;DHT22;1858;48.716;9.648;2023-10-13T11:06:27;33.20;99.90
3684;DHT22;1858;48.716;9.648;2023-10-13T11:09:14;33.30;99.90
3684;DHT22;1858;48.716;9.648;2023-10-13T11:12:14;33.30;99.90
3684;DHT22;1858;48.716;9.648;2023-10-13T11:15:03;33.50;99.90
3684;DHT22;1858;48.716;9.648;2023-10-13T11:17:51;33.40;99.90
3684;DHT22;1858;48.716;9.648;2023-10-13T11:20:42;33.20;99.90
3684;DHT22;1858;48.716;9.648;2023-10-13T11:23:29;32.70;99.90
3684;DHT22;1858;48.716;9.648;2023-10-13T11:26:16;32.40;99.90
3684;DHT22;1858;48.716;9.648;2023-10-13T11:29:03;31.90;99.90
3684;DHT22;1858;48.716;9.648;2023-10-13T11:31:51;31.60;99.90
3684;DHT22;1858;48.716;9.648;2023-10-13T11:34:39;31.40;99.90
3684;DHT22;1858;48.716;9.648;2023-10-13T11:37:25;31.40;99.90
3684;DHT22;1858;48.716;9.648;2023-10-13T11:40:16;31.40;99.90
3684;DHT22;1858;48.716;9.648;2023-10-13T11:43:04;31.30;99.90
3684;DHT22;1858;48.716;9.648;2023-10-13T11:45:51;31.20;99.90
3684;DHT22;1858;48.716;9.648;2023-10-13T11:48:44;31.20;99.90
3684;DHT22;1858;48.716;9.648;2023-10-13T11:51:31;31.30;99.90
3684;DHT22;1858;48.716;9.648;2023-10-13T11:54:22;31.40;99.90
3684;DHT22;1858;48.716;9.648;2023-10-13T11:57:08;31.40;99.90
3684;DHT22;1858;48.716;9.648;2023-10-13T11:59:55;31.20;99.90
3684;DHT22;1858;48.716;9.648;2023-10-13T12:02:43;31.10;99.90
3684;DHT22;1858;48.716;9.648;2023-10-13T12:05:48;30.90;99.90
3684;DHT22;1858;48.716;9.648;2023-10-13T12:08:38;30.80;99.90
3684;DHT22;1858;48.716;9.648;2023-10-13T12:11:26;30.70;99.90
3684;DHT22;1858;48.716;9.648;2023-10-13T12:14:20;30.60;99.90
3684;DHT22;1858;48.716;9.648;2023-10-13T12:17:08;30.60;99.90
3684;DHT22;1858;48.716;9.648;2023-10-13T12:20:01;30.40;99.90
3684;DHT22;1858;48.716;9.648;2023-10-13T12:22:44;30.40;99.90
3684;DHT22;1858;48.716;9.648;2023-10-13T12:25:44;30.20;99.90
3684;DHT22;1858;48.716;9.648;2023-10-13T12:28:32;30.10;99.90
3684;DHT22;1858;48.716;9.648;2023-10-13T12:31:20;29.90;99.90
3684;DHT22;1858;48.716;9.648;2023-10-13T12:34:07;29.80;99.90
3684;DHT22;1858;48.716;9.648;2023-10-13T12:36:59;29.70;99.90
3684;DHT22;1858;48.716;9.648;2023-10-13T12:39:47;29.70;99.90
3684;DHT22;1858;48.716;9.648;2023-10-13T12:43:10;29.60;99.90
3684;DHT22;1858;48.716;9.648;2023-10-13T12:46:15;29.60;99.90
3684;DHT22;1858;48.716;9.648;2023-10-13T12:49:20;29.50;99.90
3684;DHT22;1858;48.716;9.648;2023-10-13T12:52:26;29.50;99.90
3684;DHT22;1858;48.716;9.648;2023-10-13T12:55:14;29.50;99.90
3684;DHT22;1858;48.716;9.648;2023-10-13T12:58:01;29.60;99.90
3684;DHT22;1858;48.716;9.648;2023-10-13T13:00:49;29.70;99.90
3684;DHT22;1858;48.716;9.648;2023-10-13T13:03:37;29.70;99.90
3684;DHT22;1858;48.716;9.648;2023-10-13T13:06:26;29.60;99.90
3684;DHT22;1858;48.716;9.648;2023-10-13T13:09:14;29.60;99.90
3684;DHT22;1858;48.716;9.648;2023-10-13T13:12:01;29.60;99.90
3684;DHT22;1858;48.716;9.648;2023-10-13T13:14:48;29.40;99.90
3684;DHT22;1858;48.716;9.648;2023-10-13T13:17:37;29.40;99.90
3684;DHT22;1858;48.716;9.648;2023-10-13T13:20:24;29.40;99.90
3684;DHT22;1858;48.716;9.648;2023-10-13T13:23:14;29.40;99.90
3684;DHT22;1858;48.716;9.648;2023-10-13T13:26:01;29.40;99.90
3684;DHT22;1858;48.716;9.648;2023-10-13T13:28:47;29.40;99.90
3684;DHT22;1858;48.716;9.648;2023-10-13T13:31:36;29.30;99.90
3684;DHT22;1858;48.716;9.648;2023-10-13T13:34:25;29.20;99.90
3684;DHT22;1858;48.716;9.648;2023-10-13T13:37:11;29.30;99.90
3684;DHT22;1858;48.716;9.648;2023-10-13T13:39:58;29.40;99.90
3684;DHT22;1858;48.716;9.648;2023-10-13T13:42:46;29.40;99.90
3684;DHT22;1858;48.716;9.648;2023-10-13T13:45:32;29.20;99.90
3684;DHT22;1858;48.716;9.648;2023-10-13T13:48:20;29.20;99.90
3684;DHT22;1858;48.716;9.648;2023-10-13T13:51:07;29.30;99.90
3684;DHT22;1858;48.716;9.648;2023-10-13T13:54:00;29.20;99.90
3684;DHT22;1858;48.716;9.648;2023-10-13T13:56:47;29.30;99.90
3684;DHT22;1858;48.716;9.648;2023-10-13T13:59:35;29.20;99.90
3684;DHT22;1858;48.716;9.648;2023-10-13T14:02:21;29.30;99.90
3684;DHT22;1858;48.716;9.648;2023-10-13T14:05:08;29.20;99.90
3684;DHT22;1858;48.716;9.648;2023-10-13T14:07:56;29.10;99.90
3684;DHT22;1858;48.716;9.648;2023-10-13T14:10:44;28.90;99.90
3684;DHT22;1858;48.716;9.648;2023-10-13T14:13:50;28.80;99.90
3684;DHT22;1858;48.716;9.648;2023-10-13T14:16:39;28.60;99.90
3684;DHT22;1858;48.716;9.648;2023-10-13T14:19:27;28.60;99.90
3684;DHT22;1858;48.716;9.648;2023-10-13T14:22:13;28.50;99.90
3684;DHT22;1858;48.716;9.648;2023-10-13T14:25:00;28.40;99.90
3684;DHT22;1858;48.716;9.648;2023-10-13T14:27:48;28.50;99.90
3684;DHT22;1858;48.716;9.648;2023-10-13T14:30:34;28.60;99.90
3684;DHT22;1858;48.716;9.648;2023-10-13T14:33:23;28.60;99.90
3684;DHT22;1858;48.716;9.648;2023-10-13T14:36:11;28.50;99.90
3684;DHT22;1858;48.716;9.648;2023-10-13T14:38:57;28.40;99.90
3684;DHT22;1858;48.716;9.648;2023-10-13T14:41:44;28.30;99.90
3684;DHT22;1858;48.716;9.648;2023-10-13T14:44:51;28.30;99.90
3684;DHT22;1858;48.716;9.648;2023-10-13T14:47:40;28.30;99.90
3684;DHT22;1858;48.716;9.648;2023-10-13T14:50:27;28.30;99.90
3684;DHT22;1858;48.716;9.648;2023-10-13T14:53:13;28.20;99.90
3684;DHT22;1858;48.716;9.648;2023-10-13T14:56:01;28.00;99.90
3684;DHT22;1858;48.716;9.648;2023-10-13T14:58:49;28.00;99.90
3684;DHT22;1858;48.716;9.648;2023-10-13T15:01:36;27.90;99.90
3684;DHT22;1858;48.716;9.648;2023-10-13T15:04:22;27.90;99.90
3684;DHT22;1858;48.716;9.648;2023-10-13T15:07:09;27.70;99.90
3684;DHT22;1858;48.716;9.648;2023-10-13T15:09:56;27.90;99.90
3684;DHT22;1858;48.716;9.648;2023-10-13T15:12:43;27.80;99.90
3684;DHT22;1858;48.716;9.648;2023-10-13T15:15:29;27.80;99.90
3684;DHT22;1858;48.716;9.648;2023-10-13T15:18:17;27.70;99.90
3684;DHT22;1858;48.716;9.648;2023-10-13T15:21:04;27.50;99.90
3684;DHT22;1858;48.716;9.648;2023-10-13T15:23:51;27.50;99.90
3684;DHT22;1858;48.716;9.648;2023-10-13T15:26:41;27.40;99.90
3684;DHT22;1858;48.716;9.648;2023-10-13T15:29:48;27.30;99.90
3684;DHT22;1858;48.716;9.648;2023-10-13T15:32:36;27.30;99.90
3684;DHT22;1858;48.716;9.648;2023-10-13T15:35:29;27.20;99.90
3684;DHT22;1858;48.716;9.648;2023-10-13T15:38:16;27.00;99.90
3684;DHT22;1858;48.716;9.648;2023-10-13T15:41:02;26.90;99.90
3684;DHT22;1858;48.716;9.648;2023-10-13T15:44:12;26.80;99.90
3684;DHT22;1858;48.716;9.648;2023-10-13T15:47:18;26.70;99.90
3684;DHT22;1858;48.716;9.648;2023-10-13T15:50:04;26.70;99.90
3684;DHT22;1858;48.716;9.648;2023-10-13T15:52:51;26.60;99.90
3684;DHT22;1858;48.716;9.648;2023-10-13T15:55:37;26.60;99.90
3684;DHT22;1858;48.716;9.648;2023-10-13T15:58:24;26.40;99.90
3684;DHT22;1858;48.716;9.648;2023-10-13T16:01:11;26.30;99.90
3684;DHT22;1858;48.716;9.648;2023-10-13T16:04:01;26.20;99.90
3684;DHT22;1858;48.716;9.648;2023-10-13T16:06:49;26.00;99.90
3684;DHT22;1858;48.716;9.648;2023-10-13T16:09:38;25.80;99.90
3684;DHT22;1858;48.716;9.648;2023-10-13T16:12:24;25.60;99.90
3684;DHT22;1858;48.716;9.648;2023-10-13T16:15:12;25.40;99.90
3684;DHT22;1858;48.716;9.648;2023-10-13T16:17:59;25.30;99.90
3684;DHT22;1858;48.716;9.648;2023-10-13T16:20:48;25.10;99.90
3684;DHT22;1858;48.716;9.648;2023-10-13T16:23:35;24.90;99.90
3684;DHT22;1858;48.716;9.648;2023-10-13T16:26:44;24.80;99.90
3684;DHT22;1858;48.716;9.648;2023-10-13T16:29:30;24.60;99.90
3684;DHT22;1858;48.716;9.648;2023-10-13T16:32:16;24.40;99.90
3684;DHT22;1858;48.716;9.648;2023-10-13T16:35:06;24.20;99.90
3684;DHT22;1858;48.716;9.648;2023-10-13T16:37:52;24.00;99.90
3684;DHT22;1858;48.716;9.648;2023-10-13T16:43:39;23.70;99.90
3684;DHT22;1858;48.716;9.648;2023-10-13T16:46:25;23.50;99.90
3684;DHT22;1858;48.716;9.648;2023-10-13T16:49:11;23.40;99.90
3684;DHT22;1858;48.716;9.648;2023-10-13T16:51:59;23.20;99.90
3684;DHT22;1858;48.716;9.648;2023-10-13T16:54:45;23.00;99.90
3684;DHT22;1858;48.716;9.648;2023-10-13T16:57:32;22.80;99.90
3684;DHT22;1858;48.716;9.648;2023-10-13T17:00:23;22.70;99.90
3684;DHT22;1858;48.716;9.648;2023-10-13T17:03:08;22.60;99.90
3684;DHT22;1858;48.716;9.648;2023-10-13T17:05:55;22.40;99.90
3684;DHT22;1858;48.716;9.648;2023-10-13T17:08:42;22.30;99.90
3684;DHT22;1858;48.716;9.648;2023-10-13T17:11:29;22.20;99.90
3684;DHT22;1858;48.716;9.648;2023-10-13T17:14:15;22.10;99.90
3684;DHT22;1858;48.716;9.648;2023-10-13T17:17:01;21.90;99.90
3684;DHT22;1858;48.716;9.648;2023-10-13T17:19:48;21.80;99.90
3684;DHT22;1858;48.716;9.648;2023-10-13T17:22:35;21.80;99.90
3684;DHT22;1858;48.716;9.648;2023-10-13T17:25:25;21.70;99.90
3684;DHT22;1858;48.716;9.648;2023-10-13T17:28:12;21.60;99.90
3684;DHT22;1858;48.716;9.648;2023-10-13T17:30:59;21.50;99.90
3684;DHT22;1858;48.716;9.648;2023-10-13T17:33:46;21.40;99.90
3684;DHT22;1858;48.716;9.648;2023-10-13T17:36:34;21.40;99.90
3684;DHT22;1858;48.716;9.648;2023-10-13T17:39:21;21.30;99.90
3684;DHT22;1858;48.716;9.648;2023-10-13T17:42:09;21.20;99.90
3684;DHT22;1858;48.716;9.648;2023-10-13T17:44:59;21.10;99.90
3684;DHT22;1858;48.716;9.648;2023-10-13T17:47:45;21.00;99.90
3684;DHT22;1858;48.716;9.648;2023-10-13T17:50:32;20.90;99.90
3684;DHT22;1858;48.716;9.648;2023-10-13T17:53:18;20.90;99.90
3684;DHT22;1858;48.716;9.648;2023-10-13T17:56:09;20.80;99.90
3684;DHT22;1858;48.716;9.648;2023-10-13T17:58:57;20.70;99.90
3684;DHT22;1858;48.716;9.648;2023-10-13T18:01:44;20.60;99.90
3684;DHT22;1858;48.716;9.648;2023-10-13T18:04:32;20.50;99.90
3684;DHT22;1858;48.716;9.648;2023-10-13T18:07:19;20.40;99.90
3684;DHT22;1858;48.716;9.648;2023-10-13T18:10:08;20.30;99.90
3684;DHT22;1858;48.716;9.648;2023-10-13T18:12:56;20.20;99.90
3684;DHT22;1858;48.716;9.648;2023-10-13T18:15:43;20.20;99.90
3684;DHT22;1858;48.716;9.648;2023-10-13T18:18:32;20.10;99.90
3684;DHT22;1858;48.716;9.648;2023-10-13T18:21:24;20.10;99.90
3684;DHT22;1858;48.716;9.648;2023-10-13T18:24:12;20.00;99.90
3684;DHT22;1858;48.716;9.648;2023-10-13T18:26:58;19.90;99.90
3684;DHT22;1858;48.716;9.648;2023-10-13T18:29:45;19.80;99.90
3684;DHT22;1858;48.716;9.648;2023-10-13T18:32:34;19.80;99.90
3684;DHT22;1858;48.716;9.648;2023-10-13T18:35:23;19.80;99.90
3684;DHT22;1858;48.716;9.648;2023-10-13T18:38:10;19.80;99.90
3684;DHT22;1858;48.716;9.648;2023-10-13T18:40:56;19.70;99.90
3684;DHT22;1858;48.716;9.648;2023-10-13T18:43:43;19.60;99.90
3684;DHT22;1858;48.716;9.648;2023-10-13T18:46:29;19.50;99.90
3684;DHT22;1858;48.716;9.648;2023-10-13T18:49:16;19.40;99.90
3684;DHT22;1858;48.716;9.648;2023-10-13T18:52:03;19.40;99.90
3684;DHT22;1858;48.716;9.648;2023-10-13T18:54:49;19.30;99.90
3684;DHT22;1858;48.716;9.648;2023-10-13T18:57:35;19.20;99.90